YLOD weather

Longwood Airport
Victoria, Australia

Public forecast

Using degrees Celsius for public forecast. Weather courtesy of forecast.io.

Closest aviation weather report (METAR) to Longwood Airport

Closest report is Wangaratta Airport, 47.2 nm (87.5 km) ENE. Retrieved 2020/02/24 05:00 UTC (27 minutes ago):

YWGT 240500Z AUTO 27005KT 220V010 9999 // NCD 31/09 Q1016

Closest aviation forecast (TAF) to Longwood Airport

Closest forecast is Wangaratta Airport, 47.2 nm (87.5 km) ENE. Retrieved 2020-02-24 02:03 UTC (3 hours ago):

TAF YWGT 240053Z 2402/2414 14008KT CAVOK